sensor_id;sensor_type;location;lat;lon;timestamp;pressure;altitude;pressure_sealevel;temperature;humidity
54948;BME280;41113;41.882;12.530;2023-07-20T00:00:25;100532.03;;;29.47;59.26
54948;BME280;41113;41.882;12.530;2023-07-20T00:02:50;100527.06;;;29.49;58.92
54948;BME280;41113;41.882;12.530;2023-07-20T00:05:16;100512.44;;;29.54;58.87
54948;BME280;41113;41.882;12.530;2023-07-20T00:07:47;100521.28;;;29.51;59.43
54948;BME280;41113;41.882;12.530;2023-07-20T00:10:12;100514.03;;;29.45;59.51
54948;BME280;41113;41.882;12.530;2023-07-20T00:12:37;100521.13;;;29.35;60.00
54948;BME280;41113;41.882;12.530;2023-07-20T00:15:03;100519.47;;;29.34;59.84
54948;BME280;41113;41.882;12.530;2023-07-20T00:17:29;100512.69;;;29.20;60.51
54948;BME280;41113;41.882;12.530;2023-07-20T00:19:54;100518.91;;;29.32;60.19
54948;BME280;41113;41.882;12.530;2023-07-20T00:22:19;100520.66;;;29.11;60.32
54948;BME280;41113;41.882;12.530;2023-07-20T00:24:45;100518.97;;;28.83;60.77
54948;BME280;41113;41.882;12.530;2023-07-20T00:27:10;100516.41;;;28.77;60.57
54948;BME280;41113;41.882;12.530;2023-07-20T00:29:35;100527.38;;;28.67;60.36
54948;BME280;41113;41.882;12.530;2023-07-20T00:32:01;100526.34;;;28.51;59.71
54948;BME280;41113;41.882;12.530;2023-07-20T00:34:26;100525.78;;;28.49;59.42
54948;BME280;41113;41.882;12.530;2023-07-20T00:36:52;100515.81;;;28.48;58.94
54948;BME280;41113;41.882;12.530;2023-07-20T00:39:20;100512.59;;;28.56;58.24
54948;BME280;41113;41.882;12.530;2023-07-20T00:41:46;100508.72;;;28.57;58.17
54948;BME280;41113;41.882;12.530;2023-07-20T00:44:11;100499.66;;;28.62;57.61
54948;BME280;41113;41.882;12.530;2023-07-20T00:46:37;100500.50;;;28.62;57.75
54948;BME280;41113;41.882;12.530;2023-07-20T00:49:02;100502.00;;;28.48;57.60
54948;BME280;41113;41.882;12.530;2023-07-20T00:51:28;100499.22;;;28.48;57.49
54948;BME280;41113;41.882;12.530;2023-07-20T00:53:54;100502.53;;;28.45;57.21
54948;BME280;41113;41.882;12.530;2023-07-20T00:56:19;100505.22;;;28.40;56.57
54948;BME280;41113;41.882;12.530;2023-07-20T00:58:45;100507.00;;;28.29;56.69
54948;BME280;41113;41.882;12.530;2023-07-20T01:01:10;100507.19;;;28.23;56.42
54948;BME280;41113;41.882;12.530;2023-07-20T01:03:36;100504.22;;;28.07;55.61
54948;BME280;41113;41.882;12.530;2023-07-20T01:06:17;100501.47;;;28.07;54.89
54948;BME280;41113;41.882;12.530;2023-07-20T01:09:02;100488.19;;;28.04;55.13
54948;BME280;41113;41.882;12.530;2023-07-20T01:11:38;100489.13;;;28.15;54.43
54948;BME280;41113;41.882;12.530;2023-07-20T01:14:07;100492.28;;;28.02;55.18
54948;BME280;41113;41.882;12.530;2023-07-20T01:16:34;100496.41;;;27.99;55.25
54948;BME280;41113;41.882;12.530;2023-07-20T01:18:59;100492.81;;;27.99;55.29
54948;BME280;41113;41.882;12.530;2023-07-20T01:21:31;100483.25;;;28.06;55.46
54948;BME280;41113;41.882;12.530;2023-07-20T01:24:22;100474.81;;;27.96;55.85
54948;BME280;41113;41.882;12.530;2023-07-20T01:30:14;100468.28;;;28.02;55.40
54948;BME280;41113;41.882;12.530;2023-07-20T01:32:42;100475.41;;;27.98;55.16
54948;BME280;41113;41.882;12.530;2023-07-20T01:35:10;100476.91;;;27.89;55.32
54948;BME280;41113;41.882;12.530;2023-07-20T01:37:41;100476.34;;;27.87;55.38
54948;BME280;41113;41.882;12.530;2023-07-20T01:40:08;100476.97;;;27.94;54.88
54948;BME280;41113;41.882;12.530;2023-07-20T01:42:34;100483.09;;;27.96;53.90
54948;BME280;41113;41.882;12.530;2023-07-20T01:44:59;100485.47;;;28.09;54.19
54948;BME280;41113;41.882;12.530;2023-07-20T01:47:24;100486.84;;;28.07;53.84
54948;BME280;41113;41.882;12.530;2023-07-20T01:49:51;100494.56;;;27.88;54.58
54948;BME280;41113;41.882;12.530;2023-07-20T01:52:16;100493.91;;;27.98;54.40
54948;BME280;41113;41.882;12.530;2023-07-20T01:54:42;100499.88;;;28.11;54.28
54948;BME280;41113;41.882;12.530;2023-07-20T01:57:07;100495.19;;;28.12;53.97
54948;BME280;41113;41.882;12.530;2023-07-20T01:59:32;100496.91;;;28.18;53.90
54948;BME280;41113;41.882;12.530;2023-07-20T02:01:58;100485.63;;;27.98;54.20
54948;BME280;41113;41.882;12.530;2023-07-20T02:04:23;100489.72;;;28.17;54.04
54948;BME280;41113;41.882;12.530;2023-07-20T02:06:48;100480.59;;;28.16;53.87
54948;BME280;41113;41.882;12.530;2023-07-20T02:09:14;100484.19;;;27.95;53.86
54948;BME280;41113;41.882;12.530;2023-07-20T02:11:39;100485.00;;;27.74;54.68
54948;BME280;41113;41.882;12.530;2023-07-20T02:14:04;100476.91;;;27.89;54.55
54948;BME280;41113;41.882;12.530;2023-07-20T02:16:30;100484.13;;;27.90;54.52
54948;BME280;41113;41.882;12.530;2023-07-20T02:18:55;100478.81;;;28.05;54.06
54948;BME280;41113;41.882;12.530;2023-07-20T02:21:22;100476.50;;;27.97;53.94
54948;BME280;41113;41.882;12.530;2023-07-20T02:23:47;100488.41;;;27.81;54.14
54948;BME280;41113;41.882;12.530;2023-07-20T02:26:13;100485.13;;;27.84;54.08
54948;BME280;41113;41.882;12.530;2023-07-20T02:28:38;100482.88;;;27.81;54.45
54948;BME280;41113;41.882;12.530;2023-07-20T02:31:05;100480.63;;;27.78;54.33
54948;BME280;41113;41.882;12.530;2023-07-20T02:33:30;100474.91;;;28.01;53.62
54948;BME280;41113;41.882;12.530;2023-07-20T02:35:55;100478.22;;;28.03;53.46
54948;BME280;41113;41.882;12.530;2023-07-20T02:38:21;100475.78;;;28.07;53.54
54948;BME280;41113;41.882;12.530;2023-07-20T02:40:46;100480.78;;;27.88;53.54
54948;BME280;41113;41.882;12.530;2023-07-20T02:43:11;100490.41;;;27.85;53.45
54948;BME280;41113;41.882;12.530;2023-07-20T02:45:40;100490.06;;;27.82;53.35
54948;BME280;41113;41.882;12.530;2023-07-20T02:48:08;100482.34;;;28.01;52.53
54948;BME280;41113;41.882;12.530;2023-07-20T02:50:33;100476.63;;;28.07;50.83
54948;BME280;41113;41.882;12.530;2023-07-20T02:52:59;100481.28;;;27.85;51.33
54948;BME280;41113;41.882;12.530;2023-07-20T02:55:25;100479.31;;;27.64;51.59
54948;BME280;41113;41.882;12.530;2023-07-20T02:57:50;100480.22;;;27.52;52.09
54948;BME280;41113;41.882;12.530;2023-07-20T03:00:16;100471.50;;;27.60;52.39
54948;BME280;41113;41.882;12.530;2023-07-20T03:02:41;100483.91;;;27.75;52.05
54948;BME280;41113;41.882;12.530;2023-07-20T03:05:07;100481.25;;;27.63;52.42
54948;BME280;41113;41.882;12.530;2023-07-20T03:07:33;100481.91;;;27.53;52.57
54948;BME280;41113;41.882;12.530;2023-07-20T03:09:58;100474.22;;;27.55;52.30
54948;BME280;41113;41.882;12.530;2023-07-20T03:12:23;100481.91;;;27.53;52.26
54948;BME280;41113;41.882;12.530;2023-07-20T03:14:49;100483.06;;;27.57;52.17
54948;BME280;41113;41.882;12.530;2023-07-20T03:17:15;100490.03;;;27.43;52.19
54948;BME280;41113;41.882;12.530;2023-07-20T03:19:40;100484.41;;;27.55;52.25
54948;BME280;41113;41.882;12.530;2023-07-20T03:22:06;100494.59;;;27.54;52.52
54948;BME280;41113;41.882;12.530;2023-07-20T03:24:33;100499.47;;;27.47;52.90
54948;BME280;41113;41.882;12.530;2023-07-20T03:26:58;100499.41;;;27.42;53.05
54948;BME280;41113;41.882;12.530;2023-07-20T03:29:25;100503.00;;;27.43;53.09
54948;BME280;41113;41.882;12.530;2023-07-20T03:31:50;100494.38;;;27.39;53.18
54948;BME280;41113;41.882;12.530;2023-07-20T03:34:15;100499.81;;;27.34;53.74
54948;BME280;41113;41.882;12.530;2023-07-20T03:36:41;100490.44;;;27.18;54.02
54948;BME280;41113;41.882;12.530;2023-07-20T03:39:06;100500.66;;;27.18;54.97
54948;BME280;41113;41.882;12.530;2023-07-20T03:41:31;100499.63;;;27.24;54.72
54948;BME280;41113;41.882;12.530;2023-07-20T03:43:57;100496.81;;;27.36;53.86
54948;BME280;41113;41.882;12.530;2023-07-20T03:46:22;100493.22;;;27.35;54.10
54948;BME280;41113;41.882;12.530;2023-07-20T03:48:47;100501.50;;;27.35;53.95
54948;BME280;41113;41.882;12.530;2023-07-20T03:51:13;100511.31;;;27.31;54.24
54948;BME280;41113;41.882;12.530;2023-07-20T03:53:39;100499.56;;;27.19;54.99
54948;BME280;41113;41.882;12.530;2023-07-20T03:56:04;100494.03;;;27.19;54.41
54948;BME280;41113;41.882;12.530;2023-07-20T03:58:29;100505.00;;;27.14;54.48
54948;BME280;41113;41.882;12.530;2023-07-20T04:00:57;100495.63;;;27.32;54.33
54948;BME280;41113;41.882;12.530;2023-07-20T04:03:22;100507.59;;;27.37;53.65
54948;BME280;41113;41.882;12.530;2023-07-20T04:05:53;100505.56;;;27.49;53.63
54948;BME280;41113;41.882;12.530;2023-07-20T04:08:21;100505.66;;;27.54;53.41
54948;BME280;41113;41.882;12.530;2023-07-20T04:10:46;100508.41;;;27.54;53.38
54948;BME280;41113;41.882;12.530;2023-07-20T04:13:13;100509.84;;;27.40;53.64
54948;BME280;41113;41.882;12.530;2023-07-20T04:15:38;100501.56;;;27.40;53.51
54948;BME280;41113;41.882;12.530;2023-07-20T04:18:04;100507.53;;;27.66;52.97
54948;BME280;41113;41.882;12.530;2023-07-20T04:20:29;100504.38;;;27.79;52.54
54948;BME280;41113;41.882;12.530;2023-07-20T04:22:54;100498.38;;;28.04;51.98
54948;BME280;41113;41.882;12.530;2023-07-20T04:25:22;100496.00;;;28.12;51.65
54948;BME280;41113;41.882;12.530;2023-07-20T04:27:47;100499.34;;;28.14;51.36
54948;BME280;41113;41.882;12.530;2023-07-20T04:30:13;100498.50;;;28.31;51.13
54948;BME280;41113;41.882;12.530;2023-07-20T04:32:38;100498.91;;;28.66;50.16
54948;BME280;41113;41.882;12.530;2023-07-20T04:35:10;100499.03;;;28.81;49.70
54948;BME280;41113;41.882;12.530;2023-07-20T04:37:36;100486.56;;;29.01;49.30
54948;BME280;41113;41.882;12.530;2023-07-20T04:40:02;100500.38;;;29.01;49.03
54948;BME280;41113;41.882;12.530;2023-07-20T04:42:28;100504.66;;;29.19;48.83
54948;BME280;41113;41.882;12.530;2023-07-20T04:44:55;100505.44;;;29.83;47.58
54948;BME280;41113;41.882;12.530;2023-07-20T04:47:21;100503.53;;;30.41;46.10
54948;BME280;41113;41.882;12.530;2023-07-20T04:49:47;100505.81;;;30.59;45.26
54948;BME280;41113;41.882;12.530;2023-07-20T04:52:12;100503.50;;;30.31;45.94
54948;BME280;41113;41.882;12.530;2023-07-20T04:54:37;100499.06;;;30.30;45.81
54948;BME280;41113;41.882;12.530;2023-07-20T04:57:05;100503.50;;;30.26;45.73
54948;BME280;41113;41.882;12.530;2023-07-20T04:59:33;100504.22;;;30.79;44.65
54948;BME280;41113;41.882;12.530;2023-07-20T05:01:59;100498.16;;;31.07;44.86
54948;BME280;41113;41.882;12.530;2023-07-20T05:04:24;100502.03;;;31.06;44.54
54948;BME280;41113;41.882;12.530;2023-07-20T05:06:49;100501.72;;;30.87;44.84
54948;BME280;41113;41.882;12.530;2023-07-20T05:09:15;100510.88;;;30.78;45.75
54948;BME280;41113;41.882;12.530;2023-07-20T05:11:40;100507.91;;;31.40;44.40
54948;BME280;41113;41.882;12.530;2023-07-20T05:14:06;100503.69;;;31.68;44.09
54948;BME280;41113;41.882;12.530;2023-07-20T05:16:31;100505.94;;;31.71;44.60
54948;BME280;41113;41.882;12.530;2023-07-20T05:18:56;100501.22;;;31.46;45.08
54948;BME280;41113;41.882;12.530;2023-07-20T05:21:24;100499.28;;;32.47;43.44
54948;BME280;41113;41.882;12.530;2023-07-20T05:23:49;100508.66;;;33.10;42.06
54948;BME280;41113;41.882;12.530;2023-07-20T05:26:14;100512.13;;;34.13;40.44
54948;BME280;41113;41.882;12.530;2023-07-20T05:28:40;100507.88;;;34.45;39.84
54948;BME280;41113;41.882;12.530;2023-07-20T05:31:06;100501.34;;;34.54;39.56
54948;BME280;41113;41.882;12.530;2023-07-20T05:33:32;100515.75;;;34.99;38.85
54948;BME280;41113;41.882;12.530;2023-07-20T05:35:58;100501.19;;;35.53;38.34
54948;BME280;41113;41.882;12.530;2023-07-20T05:38:23;100508.25;;;35.32;38.35
54948;BME280;41113;41.882;12.530;2023-07-20T05:40:49;100505.19;;;35.80;37.55
54948;BME280;41113;41.882;12.530;2023-07-20T05:43:14;100508.53;;;36.23;37.07
54948;BME280;41113;41.882;12.530;2023-07-20T05:45:43;100498.22;;;35.64;35.57
54948;BME280;41113;41.882;12.530;2023-07-20T05:48:10;100502.75;;;35.27;36.14
54948;BME280;41113;41.882;12.530;2023-07-20T05:50:42;100504.78;;;35.40;36.60
54948;BME280;41113;41.882;12.530;2023-07-20T05:53:08;100502.44;;;35.47;36.11
54948;BME280;41113;41.882;12.530;2023-07-20T05:55:33;100507.00;;;36.31;36.19
54948;BME280;41113;41.882;12.530;2023-07-20T05:57:59;100503.97;;;36.41;35.49
54948;BME280;41113;41.882;12.530;2023-07-20T06:00:24;100499.72;;;35.89;34.93
54948;BME280;41113;41.882;12.530;2023-07-20T06:02:52;100500.38;;;35.53;35.43
54948;BME280;41113;41.882;12.530;2023-07-20T06:05:18;100505.22;;;34.96;37.16
54948;BME280;41113;41.882;12.530;2023-07-20T06:07:45;100497.44;;;34.31;38.17
54948;BME280;41113;41.882;12.530;2023-07-20T06:10:10;100505.00;;;34.92;37.60
54948;BME280;41113;41.882;12.530;2023-07-20T06:12:36;100498.28;;;36.19;35.70
54948;BME280;41113;41.882;12.530;2023-07-20T06:15:03;100499.38;;;36.59;34.35
54948;BME280;41113;41.882;12.530;2023-07-20T06:17:29;100501.59;;;36.48;34.83
54948;BME280;41113;41.882;12.530;2023-07-20T06:19:54;100495.56;;;36.00;35.82
54948;BME280;41113;41.882;12.530;2023-07-20T06:22:19;100507.66;;;36.78;34.48
54948;BME280;41113;41.882;12.530;2023-07-20T06:24:45;100502.53;;;37.69;34.11
54948;BME280;41113;41.882;12.530;2023-07-20T06:27:10;100498.38;;;37.80;33.80
54948;BME280;41113;41.882;12.530;2023-07-20T06:29:36;100506.59;;;37.54;33.66
54948;BME280;41113;41.882;12.530;2023-07-20T06:32:02;100505.97;;;36.76;34.82
54948;BME280;41113;41.882;12.530;2023-07-20T06:34:27;100513.03;;;37.10;34.00
54948;BME280;41113;41.882;12.530;2023-07-20T06:36:52;100505.31;;;37.60;33.80
54948;BME280;41113;41.882;12.530;2023-07-20T06:39:18;100517.09;;;38.50;32.40
54948;BME280;41113;41.882;12.530;2023-07-20T06:41:43;100522.94;;;38.71;31.99
54948;BME280;41113;41.882;12.530;2023-07-20T06:44:08;100511.75;;;37.61;33.70
54948;BME280;41113;41.882;12.530;2023-07-20T06:46:34;100516.16;;;37.31;33.64
54948;BME280;41113;41.882;12.530;2023-07-20T06:48:59;100521.75;;;36.59;35.09
54948;BME280;41113;41.882;12.530;2023-07-20T06:51:25;100523.50;;;36.68;35.09
54948;BME280;41113;41.882;12.530;2023-07-20T06:53:50;100527.19;;;36.14;36.36
54948;BME280;41113;41.882;12.530;2023-07-20T06:56:15;100525.81;;;35.51;37.19
54948;BME280;41113;41.882;12.530;2023-07-20T06:58:41;100529.75;;;35.50;37.23
54948;BME280;41113;41.882;12.530;2023-07-20T07:01:07;100534.44;;;35.69;36.82
54948;BME280;41113;41.882;12.530;2023-07-20T07:03:34;100529.84;;;35.92;36.12
54948;BME280;41113;41.882;12.530;2023-07-20T07:06:00;100533.69;;;35.31;37.24
54948;BME280;41113;41.882;12.530;2023-07-20T07:08:25;100544.25;;;34.35;39.69
54948;BME280;41113;41.882;12.530;2023-07-20T07:10:52;100543.22;;;33.72;40.61
54948;BME280;41113;41.882;12.530;2023-07-20T07:13:17;100535.59;;;33.54;41.05
54948;BME280;41113;41.882;12.530;2023-07-20T07:15:43;100536.75;;;34.06;40.01
54948;BME280;41113;41.882;12.530;2023-07-20T07:18:08;100533.91;;;34.59;39.05
54948;BME280;41113;41.882;12.530;2023-07-20T07:20:34;100522.16;;;34.62;39.15
54948;BME280;41113;41.882;12.530;2023-07-20T07:22:59;100525.31;;;34.74;38.71
54948;BME280;41113;41.882;12.530;2023-07-20T07:25:26;100525.31;;;35.12;38.21
54948;BME280;41113;41.882;12.530;2023-07-20T07:27:53;100526.28;;;35.40;37.92
54948;BME280;41113;41.882;12.530;2023-07-20T07:30:18;100529.13;;;34.83;39.22
54948;BME280;41113;41.882;12.530;2023-07-20T07:32:44;100534.22;;;34.33;39.69
54948;BME280;41113;41.882;12.530;2023-07-20T07:35:09;100535.72;;;34.50;39.55
54948;BME280;41113;41.882;12.530;2023-07-20T07:37:34;100520.88;;;34.30;40.09
54948;BME280;41113;41.882;12.530;2023-07-20T07:40:00;100532.84;;;34.55;39.84
54948;BME280;41113;41.882;12.530;2023-07-20T07:42:25;100523.97;;;34.53;39.98
54948;BME280;41113;41.882;12.530;2023-07-20T07:44:50;100526.81;;;34.48;39.69
54948;BME280;41113;41.882;12.530;2023-07-20T07:47:16;100524.50;;;35.11;38.79
54948;BME280;41113;41.882;12.530;2023-07-20T07:49:42;100528.47;;;34.49;39.46
54948;BME280;41113;41.882;12.530;2023-07-20T07:52:07;100522.41;;;33.94;40.81
54948;BME280;41113;41.882;12.530;2023-07-20T07:54:33;100522.06;;;33.71;41.41
54948;BME280;41113;41.882;12.530;2023-07-20T07:56:59;100529.19;;;33.88;41.03
54948;BME280;41113;41.882;12.530;2023-07-20T07:59:24;100520.50;;;34.61;39.95
54948;BME280;41113;41.882;12.530;2023-07-20T08:01:49;100515.44;;;35.19;38.44
54948;BME280;41113;41.882;12.530;2023-07-20T08:04:15;100527.66;;;34.48;39.71
54948;BME280;41113;41.882;12.530;2023-07-20T08:06:40;100533.09;;;34.35;40.11
54948;BME280;41113;41.882;12.530;2023-07-20T08:09:05;100528.84;;;34.61;39.57
54948;BME280;41113;41.882;12.530;2023-07-20T08:11:31;100524.84;;;34.67;39.78
54948;BME280;41113;41.882;12.530;2023-07-20T08:14:01;100519.16;;;35.15;38.70
54948;BME280;41113;41.882;12.530;2023-07-20T08:16:27;100517.06;;;35.72;37.82
54948;BME280;41113;41.882;12.530;2023-07-20T08:18:52;100514.22;;;36.04;36.86
54948;BME280;41113;41.882;12.530;2023-07-20T08:21:18;100515.78;;;36.10;36.46
54948;BME280;41113;41.882;12.530;2023-07-20T08:23:44;100510.09;;;36.15;36.80
54948;BME280;41113;41.882;12.530;2023-07-20T08:26:09;100516.91;;;36.37;36.70
54948;BME280;41113;41.882;12.530;2023-07-20T08:28:34;100515.78;;;36.38;36.94
54948;BME280;41113;41.882;12.530;2023-07-20T08:31:00;100503.97;;;36.13;37.46
54948;BME280;41113;41.882;12.530;2023-07-20T08:33:25;100508.00;;;36.21;37.32
54948;BME280;41113;41.882;12.530;2023-07-20T08:35:54;100503.97;;;36.13;37.36
54948;BME280;41113;41.882;12.530;2023-07-20T08:38:20;100495.16;;;36.34;36.84
54948;BME280;41113;41.882;12.530;2023-07-20T08:40:46;100499.81;;;36.38;36.75
54948;BME280;41113;41.882;12.530;2023-07-20T08:43:12;100503.66;;;36.29;37.24
54948;BME280;41113;41.882;12.530;2023-07-20T08:45:39;100505.41;;;36.25;37.88
54948;BME280;41113;41.882;12.530;2023-07-20T08:48:06;100503.25;;;36.22;38.38
54948;BME280;41113;41.882;12.530;2023-07-20T08:50:32;100504.91;;;36.23;38.49
54948;BME280;41113;41.882;12.530;2023-07-20T08:53:00;100497.16;;;35.60;40.50
54948;BME280;41113;41.882;12.530;2023-07-20T08:55:29;100503.69;;;35.69;40.66
54948;BME280;41113;41.882;12.530;2023-07-20T08:57:57;100506.88;;;35.95;40.02
54948;BME280;41113;41.882;12.530;2023-07-20T09:00:24;100509.75;;;35.43;40.43
54948;BME280;41113;41.882;12.530;2023-07-20T09:02:53;100508.19;;;34.62;42.10
54948;BME280;41113;41.882;12.530;2023-07-20T09:05:19;100505.78;;;34.74;41.76
54948;BME280;41113;41.882;12.530;2023-07-20T09:07:45;100508.94;;;35.24;40.93
54948;BME280;41113;41.882;12.530;2023-07-20T09:10:11;100511.34;;;35.63;40.40
54948;BME280;41113;41.882;12.530;2023-07-20T09:12:41;100511.50;;;35.39;41.55
54948;BME280;41113;41.882;12.530;2023-07-20T09:15:08;100504.72;;;35.08;42.93
54948;BME280;41113;41.882;12.530;2023-07-20T09:17:33;100508.13;;;35.23;41.79
54948;BME280;41113;41.882;12.530;2023-07-20T09:20:03;100499.88;;;35.65;41.63
54948;BME280;41113;41.882;12.530;2023-07-20T09:22:35;100509.44;;;35.91;40.89
54948;BME280;41113;41.882;12.530;2023-07-20T09:25:06;100497.44;;;36.18;40.08
54948;BME280;41113;41.882;12.530;2023-07-20T09:27:38;100498.03;;;36.29;40.04
54948;BME280;41113;41.882;12.530;2023-07-20T09:30:05;100499.19;;;36.41;40.16
54948;BME280;41113;41.882;12.530;2023-07-20T09:32:38;100495.16;;;36.34;39.90
54948;BME280;41113;41.882;12.530;2023-07-20T09:35:05;100495.38;;;36.24;40.01
54948;BME280;41113;41.882;12.530;2023-07-20T09:37:33;100496.28;;;36.05;40.42
54948;BME280;41113;41.882;12.530;2023-07-20T09:39:58;100492.34;;;36.06;40.47
54948;BME280;41113;41.882;12.530;2023-07-20T09:42:24;100493.72;;;36.23;40.15
54948;BME280;41113;41.882;12.530;2023-07-20T09:44:51;100499.41;;;36.45;39.36
54948;BME280;41113;41.882;12.530;2023-07-20T09:47:24;100494.09;;;36.57;38.21
54948;BME280;41113;41.882;12.530;2023-07-20T09:49:49;100485.00;;;36.38;39.57
54948;BME280;41113;41.882;12.530;2023-07-20T09:52:15;100493.06;;;36.53;39.17
54948;BME280;41113;41.882;12.530;2023-07-20T09:54:44;100493.84;;;36.67;39.03
54948;BME280;41113;41.882;12.530;2023-07-20T09:57:11;100496.78;;;36.62;39.13
54948;BME280;41113;41.882;12.530;2023-07-20T09:59:39;100496.97;;;36.80;38.22
54948;BME280;41113;41.882;12.530;2023-07-20T10:02:12;100500.53;;;36.94;38.20
54948;BME280;41113;41.882;12.530;2023-07-20T10:04:43;100485.22;;;36.91;37.88
54948;BME280;41113;41.882;12.530;2023-07-20T10:07:10;100484.69;;;36.26;38.80
54948;BME280;41113;41.882;12.530;2023-07-20T10:09:39;100483.03;;;36.38;38.75
54948;BME280;41113;41.882;12.530;2023-07-20T10:12:07;100486.97;;;36.51;38.75
54948;BME280;41113;41.882;12.530;2023-07-20T10:14:35;100481.72;;;36.72;38.23
54948;BME280;41113;41.882;12.530;2023-07-20T10:17:05;100475.78;;;36.73;38.28
54948;BME280;41113;41.882;12.530;2023-07-20T10:22:12;100476.50;;;36.93;36.65
54948;BME280;41113;41.882;12.530;2023-07-20T10:24:39;100476.56;;;37.01;37.77
54948;BME280;41113;41.882;12.530;2023-07-20T10:27:05;100463.13;;;36.90;37.47
54948;BME280;41113;41.882;12.530;2023-07-20T10:29:31;100466.88;;;36.71;37.54
54948;BME280;41113;41.882;12.530;2023-07-20T10:31:57;100462.34;;;36.75;38.01
54948;BME280;41113;41.882;12.530;2023-07-20T10:34:23;100465.28;;;36.93;37.82
54948;BME280;41113;41.882;12.530;2023-07-20T10:36:49;100463.50;;;36.97;37.83
54948;BME280;41113;41.882;12.530;2023-07-20T10:39:30;100454.59;;;36.95;37.06
54948;BME280;41113;41.882;12.530;2023-07-20T10:44:25;100458.91;;;37.01;37.78
54948;BME280;41113;41.882;12.530;2023-07-20T10:47:00;100453.66;;;36.99;36.45
54948;BME280;41113;41.882;12.530;2023-07-20T10:49:26;100457.66;;;37.07;37.38
54948;BME280;41113;41.882;12.530;2023-07-20T10:51:59;100450.66;;;36.96;36.37
54948;BME280;41113;41.882;12.530;2023-07-20T10:56:50;100450.72;;;36.82;37.49
54948;BME280;41113;41.882;12.530;2023-07-20T11:01:59;100441.81;;;36.80;35.78
54948;BME280;41113;41.882;12.530;2023-07-20T11:04:40;100437.94;;;36.90;36.73
54948;BME280;41113;41.882;12.530;2023-07-20T11:07:06;100449.97;;;36.90;36.30
54948;BME280;41113;41.882;12.530;2023-07-20T11:09:36;100443.41;;;36.95;36.52
54948;BME280;41113;41.882;12.530;2023-07-20T11:12:17;100446.59;;;36.80;37.27
54948;BME280;41113;41.882;12.530;2023-07-20T11:15:03;100450.81;;;36.77;37.92
54948;BME280;41113;41.882;12.530;2023-07-20T11:17:30;100458.03;;;36.92;37.98
54948;BME280;41113;41.882;12.530;2023-07-20T11:19:56;100453.91;;;36.89;38.31
54948;BME280;41113;41.882;12.530;2023-07-20T11:22:22;100451.75;;;36.72;39.32
54948;BME280;41113;41.882;12.530;2023-07-20T11:24:48;100458.88;;;36.56;40.34
54948;BME280;41113;41.882;12.530;2023-07-20T11:27:15;100465.09;;;36.53;41.15
54948;BME280;41113;41.882;12.530;2023-07-20T11:29:40;100463.59;;;36.69;40.81
54948;BME280;41113;41.882;12.530;2023-07-20T11:32:05;100462.34;;;36.75;41.04
54948;BME280;41113;41.882;12.530;2023-07-20T11:34:32;100453.41;;;36.73;41.12
54948;BME280;41113;41.882;12.530;2023-07-20T11:36:58;100461.97;;;36.55;42.39
54948;BME280;41113;41.882;12.530;2023-07-20T11:39:24;100455.56;;;36.54;42.43
54948;BME280;41113;41.882;12.530;2023-07-20T11:41:59;100458.47;;;36.49;45.23
54948;BME280;41113;41.882;12.530;2023-07-20T11:44:28;100450.28;;;36.53;43.82
54948;BME280;41113;41.882;12.530;2023-07-20T11:47:02;100449.31;;;36.57;44.63
54948;BME280;41113;41.882;12.530;2023-07-20T11:49:29;100452.25;;;36.52;43.92
54948;BME280;41113;41.882;12.530;2023-07-20T11:51:56;100453.50;;;36.46;43.85
54948;BME280;41113;41.882;12.530;2023-07-20T11:54:23;100451.63;;;36.41;44.44
54948;BME280;41113;41.882;12.530;2023-07-20T11:56:53;100454.34;;;36.33;44.98
54948;BME280;41113;41.882;12.530;2023-07-20T11:59:18;100445.13;;;36.32;44.07
54948;BME280;41113;41.882;12.530;2023-07-20T12:01:44;100452.19;;;36.30;44.29
54948;BME280;41113;41.882;12.530;2023-07-20T12:04:10;100438.19;;;36.30;44.24
54948;BME280;41113;41.882;12.530;2023-07-20T12:06:35;100437.56;;;36.33;44.24
54948;BME280;41113;41.882;12.530;2023-07-20T12:09:01;100436.13;;;36.35;44.09
54948;BME280;41113;41.882;12.530;2023-07-20T12:11:34;100430.63;;;36.30;44.57
54948;BME280;41113;41.882;12.530;2023-07-20T12:13:59;100429.91;;;36.25;44.51
54948;BME280;41113;41.882;12.530;2023-07-20T12:16:27;100425.75;;;36.36;44.45
54948;BME280;41113;41.882;12.530;2023-07-20T12:19:03;100425.97;;;36.26;44.55
54948;BME280;41113;41.882;12.530;2023-07-20T12:21:30;100421.00;;;36.23;44.26
54948;BME280;41113;41.882;12.530;2023-07-20T12:23:57;100422.66;;;36.10;44.82
54948;BME280;41113;41.882;12.530;2023-07-20T12:26:24;100411.19;;;36.11;45.02
54948;BME280;41113;41.882;12.530;2023-07-20T12:28:50;100412.94;;;36.07;44.73
54948;BME280;41113;41.882;12.530;2023-07-20T12:31:15;100414.00;;;36.11;44.53
54948;BME280;41113;41.882;12.530;2023-07-20T12:33:41;100408.41;;;36.11;44.30
54948;BME280;41113;41.882;12.530;2023-07-20T12:36:08;100407.34;;;36.07;45.18
54948;BME280;41113;41.882;12.530;2023-07-20T12:38:34;100410.13;;;36.07;44.83
54948;BME280;41113;41.882;12.530;2023-07-20T12:41:03;100405.28;;;35.99;45.48
54948;BME280;41113;41.882;12.530;2023-07-20T12:43:29;100399.31;;;35.92;45.37
54948;BME280;41113;41.882;12.530;2023-07-20T12:45:55;100396.81;;;35.91;45.18
54948;BME280;41113;41.882;12.530;2023-07-20T12:48:21;100406.34;;;35.90;45.42
54948;BME280;41113;41.882;12.530;2023-07-20T12:50:46;100397.66;;;35.91;45.19